sensor_id;sensor_type;location;lat;lon;timestamp;temperature;humidity
36548;DHT22;22551;52.206;4.856;2023-12-22T00:18:11;7.30;99.90
36548;DHT22;22551;52.206;4.856;2023-12-22T00:23:13;7.20;99.90
36548;DHT22;22551;52.206;4.856;2023-12-22T00:28:15;7.10;99.90
36548;DHT22;22551;52.206;4.856;2023-12-22T00:33:18;6.40;99.90
36548;DHT22;22551;52.206;4.856;2023-12-22T00:38:20;6.10;99.90
36548;DHT22;22551;52.206;4.856;2023-12-22T00:43:22;6.00;99.90
36548;DHT22;22551;52.206;4.856;2023-12-22T00:48:26;6.00;99.90
36548;DHT22;22551;52.206;4.856;2023-12-22T00:53:29;6.10;99.90
36548;DHT22;22551;52.206;4.856;2023-12-22T00:58:31;6.20;99.90
36548;DHT22;22551;52.206;4.856;2023-12-22T01:03:34;6.20;99.90
36548;DHT22;22551;52.206;4.856;2023-12-22T01:08:36;6.30;99.90
36548;DHT22;22551;52.206;4.856;2023-12-22T01:13:39;6.30;99.90
36548;DHT22;22551;52.206;4.856;2023-12-22T01:18:42;6.40;99.90
36548;DHT22;22551;52.206;4.856;2023-12-22T01:23:45;6.40;99.90
36548;DHT22;22551;52.206;4.856;2023-12-22T02:05:00;6.70;99.90
36548;DHT22;22551;52.206;4.856;2023-12-22T02:10:04;7.00;99.90
36548;DHT22;22551;52.206;4.856;2023-12-22T02:15:07;7.00;99.90
36548;DHT22;22551;52.206;4.856;2023-12-22T02:20:11;7.20;99.90
36548;DHT22;22551;52.206;4.856;2023-12-22T02:25:16;7.20;99.90
36548;DHT22;22551;52.206;4.856;2023-12-22T02:30:24;7.30;99.90
36548;DHT22;22551;52.206;4.856;2023-12-22T02:35:29;7.40;99.90
36548;DHT22;22551;52.206;4.856;2023-12-22T02:40:34;7.40;99.90
36548;DHT22;22551;52.206;4.856;2023-12-22T02:45:36;7.40;99.90
36548;DHT22;22551;52.206;4.856;2023-12-22T02:50:38;7.40;99.90
36548;DHT22;22551;52.206;4.856;2023-12-22T02:55:42;7.40;99.90
36548;DHT22;22551;52.206;4.856;2023-12-22T03:00:44;7.40;99.90
36548;DHT22;22551;52.206;4.856;2023-12-22T03:05:46;7.40;99.90
36548;DHT22;22551;52.206;4.856;2023-12-22T03:10:50;7.50;99.90
36548;DHT22;22551;52.206;4.856;2023-12-22T03:15:52;7.50;99.90
36548;DHT22;22551;52.206;4.856;2023-12-22T03:20:54;7.60;99.90
36548;DHT22;22551;52.206;4.856;2023-12-22T03:25:58;7.70;99.90
36548;DHT22;22551;52.206;4.856;2023-12-22T03:31:04;7.90;99.90
36548;DHT22;22551;52.206;4.856;2023-12-22T03:36:07;7.90;99.90
36548;DHT22;22551;52.206;4.856;2023-12-22T03:41:11;7.90;99.90
36548;DHT22;22551;52.206;4.856;2023-12-22T03:46:13;8.00;99.90
36548;DHT22;22551;52.206;4.856;2023-12-22T03:51:15;8.00;99.90
36548;DHT22;22551;52.206;4.856;2023-12-22T03:56:18;8.10;99.90
36548;DHT22;22551;52.206;4.856;2023-12-22T04:01:21;8.00;99.90
36548;DHT22;22551;52.206;4.856;2023-12-22T04:06:23;8.20;99.90
36548;DHT22;22551;52.206;4.856;2023-12-22T04:11:29;8.10;99.90
36548;DHT22;22551;52.206;4.856;2023-12-22T04:16:31;8.10;99.90
36548;DHT22;22551;52.206;4.856;2023-12-22T04:21:33;8.00;99.90
36548;DHT22;22551;52.206;4.856;2023-12-22T04:26:37;8.10;99.90
36548;DHT22;22551;52.206;4.856;2023-12-22T04:31:39;8.10;99.90
36548;DHT22;22551;52.206;4.856;2023-12-22T04:36:41;8.10;99.90
36548;DHT22;22551;52.206;4.856;2023-12-22T04:41:44;8.10;99.90
36548;DHT22;22551;52.206;4.856;2023-12-22T04:46:47;8.10;99.90
36548;DHT22;22551;52.206;4.856;2023-12-22T04:51:49;8.20;99.90
36548;DHT22;22551;52.206;4.856;2023-12-22T04:56:52;8.30;99.90
36548;DHT22;22551;52.206;4.856;2023-12-22T05:01:54;8.30;99.90
36548;DHT22;22551;52.206;4.856;2023-12-22T05:06:56;8.40;99.90
36548;DHT22;22551;52.206;4.856;2023-12-22T05:12:00;8.40;99.90
36548;DHT22;22551;52.206;4.856;2023-12-22T05:17:02;8.50;99.90
36548;DHT22;22551;52.206;4.856;2023-12-22T05:22:04;8.40;99.90
36548;DHT22;22551;52.206;4.856;2023-12-22T05:27:08;8.40;99.90
36548;DHT22;22551;52.206;4.856;2023-12-22T05:32:10;8.30;99.90
36548;DHT22;22551;52.206;4.856;2023-12-22T05:37:12;8.30;99.90
36548;DHT22;22551;52.206;4.856;2023-12-22T05:42:16;8.40;99.90
36548;DHT22;22551;52.206;4.856;2023-12-22T05:52:28;8.40;99.90
36548;DHT22;22551;52.206;4.856;2023-12-22T06:02:42;8.50;99.90
36548;DHT22;22551;52.206;4.856;2023-12-22T06:07:44;8.50;99.90
36548;DHT22;22551;52.206;4.856;2023-12-22T06:12:46;8.50;99.90
36548;DHT22;22551;52.206;4.856;2023-12-22T06:17:50;8.60;99.90
36548;DHT22;22551;52.206;4.856;2023-12-22T06:22:52;8.60;99.90
36548;DHT22;22551;52.206;4.856;2023-12-22T06:27:54;8.60;99.90
36548;DHT22;22551;52.206;4.856;2023-12-22T06:32:57;8.60;99.90
36548;DHT22;22551;52.206;4.856;2023-12-22T06:38:00;8.70;99.90
36548;DHT22;22551;52.206;4.856;2023-12-22T06:43:04;8.70;99.90
36548;DHT22;22551;52.206;4.856;2023-12-22T06:48:10;8.70;99.90
36548;DHT22;22551;52.206;4.856;2023-12-22T06:53:13;8.70;99.90
36548;DHT22;22551;52.206;4.856;2023-12-22T06:58:15;8.60;99.90
36548;DHT22;22551;52.206;4.856;2023-12-22T07:03:19;8.60;99.90
36548;DHT22;22551;52.206;4.856;2023-12-22T07:08:21;8.70;99.90
36548;DHT22;22551;52.206;4.856;2023-12-22T07:13:23;8.70;99.90
36548;DHT22;22551;52.206;4.856;2023-12-22T07:18:27;8.80;99.90
36548;DHT22;22551;52.206;4.856;2023-12-22T07:23:30;8.80;99.90
36548;DHT22;22551;52.206;4.856;2023-12-22T07:28:33;8.70;99.90
36548;DHT22;22551;52.206;4.856;2023-12-22T07:33:36;8.70;99.90
36548;DHT22;22551;52.206;4.856;2023-12-22T07:38:38;8.70;99.90
36548;DHT22;22551;52.206;4.856;2023-12-22T07:43:41;8.80;99.90
36548;DHT22;22551;52.206;4.856;2023-12-22T07:48:44;8.80;99.90
36548;DHT22;22551;52.206;4.856;2023-12-22T07:53:46;8.80;99.90
36548;DHT22;22551;52.206;4.856;2023-12-22T08:40:13;8.70;99.90
36548;DHT22;22551;52.206;4.856;2023-12-22T08:45:16;8.70;99.90
36548;DHT22;22551;52.206;4.856;2023-12-22T08:55:29;8.70;99.90
36548;DHT22;22551;52.206;4.856;2023-12-22T09:00:35;8.70;99.90
36548;DHT22;22551;52.206;4.856;2023-12-22T13:19:42;10.50;99.90
36548;DHT22;22551;52.206;4.856;2023-12-22T13:24:55;10.50;99.90
36548;DHT22;22551;52.206;4.856;2023-12-22T13:29:58;10.50;99.90
36548;DHT22;22551;52.206;4.856;2023-12-22T13:35:02;10.50;99.90
36548;DHT22;22551;52.206;4.856;2023-12-22T13:40:07;10.50;99.90
36548;DHT22;22551;52.206;4.856;2023-12-22T13:45:10;10.50;99.90
36548;DHT22;22551;52.206;4.856;2023-12-22T13:50:15;10.50;99.90
36548;DHT22;22551;52.206;4.856;2023-12-22T13:55:18;10.50;99.90
36548;DHT22;22551;52.206;4.856;2023-12-22T14:00:27;10.50;99.90
36548;DHT22;22551;52.206;4.856;2023-12-22T14:05:31;10.50;99.90
36548;DHT22;22551;52.206;4.856;2023-12-22T14:10:35;10.50;99.90
36548;DHT22;22551;52.206;4.856;2023-12-22T14:15:37;10.40;99.90
36548;DHT22;22551;52.206;4.856;2023-12-22T14:20:41;10.50;99.90
36548;DHT22;22551;52.206;4.856;2023-12-22T14:25:43;10.50;99.90
36548;DHT22;22551;52.206;4.856;2023-12-22T14:30:47;10.50;99.90
36548;DHT22;22551;52.206;4.856;2023-12-22T14:35:53;10.50;99.90
36548;DHT22;22551;52.206;4.856;2023-12-22T14:40:56;10.50;99.90
36548;DHT22;22551;52.206;4.856;2023-12-22T14:45:59;10.50;99.90
36548;DHT22;22551;52.206;4.856;2023-12-22T14:51:02;10.40;99.90
36548;DHT22;22551;52.206;4.856;2023-12-22T14:56:06;10.50;99.90
36548;DHT22;22551;52.206;4.856;2023-12-22T15:01:12;10.50;99.90
36548;DHT22;22551;52.206;4.856;2023-12-22T15:06:16;10.40;99.90
36548;DHT22;22551;52.206;4.856;2023-12-22T15:11:18;10.50;99.90
36548;DHT22;22551;52.206;4.856;2023-12-22T15:16:20;10.50;99.90
36548;DHT22;22551;52.206;4.856;2023-12-22T15:21:24;10.50;99.90
36548;DHT22;22551;52.206;4.856;2023-12-22T15:26:26;10.50;99.90
36548;DHT22;22551;52.206;4.856;2023-12-22T15:31:28;10.50;99.90
36548;DHT22;22551;52.206;4.856;2023-12-22T15:36:32;10.60;99.90
36548;DHT22;22551;52.206;4.856;2023-12-22T15:41:34;10.50;99.90
36548;DHT22;22551;52.206;4.856;2023-12-22T15:46:36;10.50;99.90
36548;DHT22;22551;52.206;4.856;2023-12-22T15:51:40;10.40;99.90
36548;DHT22;22551;52.206;4.856;2023-12-22T17:07:46;10.20;99.90
36548;DHT22;22551;52.206;4.856;2023-12-22T17:12:48;10.20;99.90
36548;DHT22;22551;52.206;4.856;2023-12-22T17:17:50;10.20;99.90
36548;DHT22;22551;52.206;4.856;2023-12-22T17:22:54;10.20;99.90
36548;DHT22;22551;52.206;4.856;2023-12-22T17:27:56;10.20;99.90
36548;DHT22;22551;52.206;4.856;2023-12-22T17:32:58;10.20;99.90
36548;DHT22;22551;52.206;4.856;2023-12-22T17:38:02;10.20;99.90
36548;DHT22;22551;52.206;4.856;2023-12-22T17:43:04;10.30;99.90
36548;DHT22;22551;52.206;4.856;2023-12-22T17:48:07;10.30;99.90
36548;DHT22;22551;52.206;4.856;2023-12-22T17:53:11;10.30;99.90
36548;DHT22;22551;52.206;4.856;2023-12-22T17:58:13;10.30;99.90
36548;DHT22;22551;52.206;4.856;2023-12-22T18:03:15;10.40;99.90
36548;DHT22;22551;52.206;4.856;2023-12-22T18:08:19;10.30;99.90
36548;DHT22;22551;52.206;4.856;2023-12-22T18:13:21;10.40;99.90
36548;DHT22;22551;52.206;4.856;2023-12-22T19:27:02;8.20;99.90
36548;DHT22;22551;52.206;4.856;2023-12-22T19:32:05;7.90;99.90
36548;DHT22;22551;52.206;4.856;2023-12-22T19:37:08;7.80;99.90
36548;DHT22;22551;52.206;4.856;2023-12-22T19:42:12;7.80;99.90
36548;DHT22;22551;52.206;4.856;2023-12-22T19:47:14;7.80;99.90
36548;DHT22;22551;52.206;4.856;2023-12-22T19:52:16;7.80;99.90
36548;DHT22;22551;52.206;4.856;2023-12-22T20:02:32;7.80;99.90
36548;DHT22;22551;52.206;4.856;2023-12-22T20:07:35;7.80;99.90
36548;DHT22;22551;52.206;4.856;2023-12-22T20:12:37;7.80;99.90
36548;DHT22;22551;52.206;4.856;2023-12-22T20:17:44;7.80;99.90
36548;DHT22;22551;52.206;4.856;2023-12-22T20:22:46;7.80;99.90
36548;DHT22;22551;52.206;4.856;2023-12-22T20:27:48;7.80;99.90
36548;DHT22;22551;52.206;4.856;2023-12-22T20:32:53;7.80;99.90
36548;DHT22;22551;52.206;4.856;2023-12-22T20:37:56;7.80;99.90
36548;DHT22;22551;52.206;4.856;2023-12-22T20:42:58;7.80;99.90
36548;DHT22;22551;52.206;4.856;2023-12-22T20:48:02;7.90;99.90
36548;DHT22;22551;52.206;4.856;2023-12-22T20:58:15;7.90;99.90
36548;DHT22;22551;52.206;4.856;2023-12-22T21:03:18;7.90;99.90
36548;DHT22;22551;52.206;4.856;2023-12-22T21:08:20;7.90;99.90
36548;DHT22;22551;52.206;4.856;2023-12-22T21:13:22;7.90;99.90
36548;DHT22;22551;52.206;4.856;2023-12-22T21:18:26;7.90;99.90
36548;DHT22;22551;52.206;4.856;2023-12-22T21:23:28;8.00;99.90
36548;DHT22;22551;52.206;4.856;2023-12-22T21:28:31;8.00;99.90
36548;DHT22;22551;52.206;4.856;2023-12-22T21:33:36;8.10;99.90
36548;DHT22;22551;52.206;4.856;2023-12-22T21:38:39;8.00;99.90
36548;DHT22;22551;52.206;4.856;2023-12-22T21:43:41;7.90;99.90
36548;DHT22;22551;52.206;4.856;2023-12-22T21:48:45;8.00;99.90
36548;DHT22;22551;52.206;4.856;2023-12-22T21:53:48;8.00;99.90
36548;DHT22;22551;52.206;4.856;2023-12-22T21:58:50;7.90;99.90
36548;DHT22;22551;52.206;4.856;2023-12-22T22:03:54;7.90;99.90
36548;DHT22;22551;52.206;4.856;2023-12-22T22:29:40;7.60;99.90
36548;DHT22;22551;52.206;4.856;2023-12-22T22:34:42;7.60;99.90
36548;DHT22;22551;52.206;4.856;2023-12-22T22:39:46;7.60;99.90
36548;DHT22;22551;52.206;4.856;2023-12-22T22:44:52;7.60;99.90
36548;DHT22;22551;52.206;4.856;2023-12-22T22:49:54;7.70;99.90
36548;DHT22;22551;52.206;4.856;2023-12-22T22:54:56;7.70;99.90
36548;DHT22;22551;52.206;4.856;2023-12-22T23:00:00;7.70;99.90
36548;DHT22;22551;52.206;4.856;2023-12-22T23:05:03;7.80;99.90
36548;DHT22;22551;52.206;4.856;2023-12-22T23:10:06;7.80;99.90
36548;DHT22;22551;52.206;4.856;2023-12-22T23:15:10;7.80;99.90
36548;DHT22;22551;52.206;4.856;2023-12-22T23:20:12;7.80;99.90
36548;DHT22;22551;52.206;4.856;2023-12-22T23:25:14;7.80;99.90
36548;DHT22;22551;52.206;4.856;2023-12-22T23:30:18;7.80;99.90
36548;DHT22;22551;52.206;4.856;2023-12-22T23:35:20;7.80;99.90
